Disclaimer

Please do not use the information listed here in-flight or in-navigation, as they are not provided to us by the airports but are provided by volunteers, so they might be outdated.

Search


Regions


Airport information page

Radio informations:
JAZAN TWR - 118.0 MHz
Ground (GND) - 121.9 MHz

Airport informations:
Latitude: 16° 54' 04.00" N
Longitude: 042° 35' 09.00" E
Elevation: 20 feet - 6 meters
Operating hours: 24 hour operations
Operating agency: Military-civil joint use airport
Timezone: UTC+3
Fuel: Jet A1, without icing nhibitor.

Runway information:
15/33 - 10006 x 148 feet< - >3050 x 45 meters

Recent METARs:
OEGN 151100Z 19007KT 9999 FEW030 32/24 Q1009 NOSIG
OEGN 151100Z 19007KT 9999 FEW030 32/24 Q1009 NOSIG
OEGN 151200Z 20007KT 9999 FEW030 32/23 Q1009 NOSIG

Airport on the map: